sensor_id;sensor_type;location;lat;lon;timestamp;temperature;humidity
28069;DHT22;15382;47.578;8.086;2024-03-07T00:05:18;4.60;99.90
28069;DHT22;15382;47.578;8.086;2024-03-07T00:15:18;4.60;99.90
28069;DHT22;15382;47.578;8.086;2024-03-07T00:25:19;4.50;99.90
28069;DHT22;15382;47.578;8.086;2024-03-07T00:35:20;4.50;99.90
28069;DHT22;15382;47.578;8.086;2024-03-07T00:45:21;4.60;99.90
28069;DHT22;15382;47.578;8.086;2024-03-07T00:55:21;4.70;99.90
28069;DHT22;15382;47.578;8.086;2024-03-07T01:05:23;4.70;99.90
28069;DHT22;15382;47.578;8.086;2024-03-07T01:15:24;4.70;99.90
28069;DHT22;15382;47.578;8.086;2024-03-07T01:25:25;4.80;99.90
28069;DHT22;15382;47.578;8.086;2024-03-07T01:35:25;4.70;99.90
28069;DHT22;15382;47.578;8.086;2024-03-07T01:45:26;4.70;99.90
28069;DHT22;15382;47.578;8.086;2024-03-07T01:55:27;4.70;99.90
28069;DHT22;15382;47.578;8.086;2024-03-07T02:05:27;4.70;99.90
28069;DHT22;15382;47.578;8.086;2024-03-07T02:15:28;4.70;99.90
28069;DHT22;15382;47.578;8.086;2024-03-07T02:25:29;4.70;99.90
28069;DHT22;15382;47.578;8.086;2024-03-07T02:35:30;4.50;99.90
28069;DHT22;15382;47.578;8.086;2024-03-07T02:45:31;4.50;99.90
28069;DHT22;15382;47.578;8.086;2024-03-07T02:55:32;4.50;99.90
28069;DHT22;15382;47.578;8.086;2024-03-07T03:05:33;4.40;99.90
28069;DHT22;15382;47.578;8.086;2024-03-07T03:15:34;4.40;99.90
28069;DHT22;15382;47.578;8.086;2024-03-07T03:25:35;4.40;99.90
28069;DHT22;15382;47.578;8.086;2024-03-07T03:35:39;4.40;99.90
28069;DHT22;15382;47.578;8.086;2024-03-07T03:45:39;4.40;99.90
28069;DHT22;15382;47.578;8.086;2024-03-07T03:55:40;4.40;99.90
28069;DHT22;15382;47.578;8.086;2024-03-07T04:05:41;4.40;99.90
28069;DHT22;15382;47.578;8.086;2024-03-07T04:15:41;4.40;99.90
28069;DHT22;15382;47.578;8.086;2024-03-07T04:25:42;4.40;99.90
28069;DHT22;15382;47.578;8.086;2024-03-07T04:35:43;4.40;99.90
28069;DHT22;15382;47.578;8.086;2024-03-07T04:45:43;4.40;99.90
28069;DHT22;15382;47.578;8.086;2024-03-07T04:55:44;4.40;99.90
28069;DHT22;15382;47.578;8.086;2024-03-07T05:05:45;4.30;99.90
28069;DHT22;15382;47.578;8.086;2024-03-07T05:15:46;4.30;99.90
28069;DHT22;15382;47.578;8.086;2024-03-07T05:25:46;4.40;99.90
28069;DHT22;15382;47.578;8.086;2024-03-07T05:35:47;4.30;99.90
28069;DHT22;15382;47.578;8.086;2024-03-07T05:45:48;4.30;99.90
28069;DHT22;15382;47.578;8.086;2024-03-07T05:55:48;4.30;99.90
28069;DHT22;15382;47.578;8.086;2024-03-07T06:05:49;4.40;99.90
28069;DHT22;15382;47.578;8.086;2024-03-07T06:15:50;4.50;99.90
28069;DHT22;15382;47.578;8.086;2024-03-07T06:25:51;4.50;99.90
28069;DHT22;15382;47.578;8.086;2024-03-07T06:35:52;4.50;99.90
28069;DHT22;15382;47.578;8.086;2024-03-07T06:45:52;4.60;99.90
28069;DHT22;15382;47.578;8.086;2024-03-07T06:55:53;4.50;99.90
28069;DHT22;15382;47.578;8.086;2024-03-07T07:05:54;4.60;99.90
28069;DHT22;15382;47.578;8.086;2024-03-07T07:15:55;4.70;99.90
28069;DHT22;15382;47.578;8.086;2024-03-07T07:25:55;4.80;99.90
28069;DHT22;15382;47.578;8.086;2024-03-07T07:35:56;4.80;99.90
28069;DHT22;15382;47.578;8.086;2024-03-07T07:45:57;4.90;99.90
28069;DHT22;15382;47.578;8.086;2024-03-07T07:55:57;5.00;99.90
28069;DHT22;15382;47.578;8.086;2024-03-07T08:05:58;5.10;99.90
28069;DHT22;15382;47.578;8.086;2024-03-07T08:15:58;5.20;99.90
28069;DHT22;15382;47.578;8.086;2024-03-07T08:25:59;5.20;99.90
28069;DHT22;15382;47.578;8.086;2024-03-07T08:36:00;5.20;99.90
28069;DHT22;15382;47.578;8.086;2024-03-07T08:46:01;5.30;99.90
28069;DHT22;15382;47.578;8.086;2024-03-07T08:56:02;5.50;99.90
28069;DHT22;15382;47.578;8.086;2024-03-07T09:06:03;5.70;99.90
28069;DHT22;15382;47.578;8.086;2024-03-07T09:16:04;5.70;99.90
28069;DHT22;15382;47.578;8.086;2024-03-07T09:26:05;5.80;99.90
28069;DHT22;15382;47.578;8.086;2024-03-07T09:36:07;5.90;99.90
28069;DHT22;15382;47.578;8.086;2024-03-07T09:46:09;5.90;99.90
28069;DHT22;15382;47.578;8.086;2024-03-07T09:56:10;6.20;99.90
28069;DHT22;15382;47.578;8.086;2024-03-07T10:06:13;6.10;99.90
28069;DHT22;15382;47.578;8.086;2024-03-07T10:16:17;6.30;99.90
28069;DHT22;15382;47.578;8.086;2024-03-07T10:26:19;6.30;99.90
28069;DHT22;15382;47.578;8.086;2024-03-07T10:36:20;6.40;99.90
28069;DHT22;15382;47.578;8.086;2024-03-07T10:46:25;6.50;99.90
28069;DHT22;15382;47.578;8.086;2024-03-07T11:06:45;6.70;99.90
28069;DHT22;15382;47.578;8.086;2024-03-07T11:16:46;6.90;99.90
28069;DHT22;15382;47.578;8.086;2024-03-07T11:26:48;7.00;99.90
28069;DHT22;15382;47.578;8.086;2024-03-07T11:36:49;7.20;99.90
28069;DHT22;15382;47.578;8.086;2024-03-07T11:46:56;7.20;99.90
28069;DHT22;15382;47.578;8.086;2024-03-07T11:56:57;7.30;99.90
28069;DHT22;15382;47.578;8.086;2024-03-07T12:06:58;7.60;99.90
28069;DHT22;15382;47.578;8.086;2024-03-07T12:17:01;7.30;99.90
28069;DHT22;15382;47.578;8.086;2024-03-07T12:27:05;7.30;99.90
28069;DHT22;15382;47.578;8.086;2024-03-07T12:37:07;7.40;99.90
28069;DHT22;15382;47.578;8.086;2024-03-07T12:47:10;7.70;99.90
28069;DHT22;15382;47.578;8.086;2024-03-07T12:57:11;7.60;99.90
28069;DHT22;15382;47.578;8.086;2024-03-07T13:07:12;7.60;99.90
28069;DHT22;15382;47.578;8.086;2024-03-07T13:17:16;8.00;99.90
28069;DHT22;15382;47.578;8.086;2024-03-07T13:27:18;8.00;99.90
28069;DHT22;15382;47.578;8.086;2024-03-07T13:37:25;7.60;99.90
28069;DHT22;15382;47.578;8.086;2024-03-07T13:47:26;7.50;99.90
28069;DHT22;15382;47.578;8.086;2024-03-07T13:57:46;7.60;99.90
28069;DHT22;15382;47.578;8.086;2024-03-07T14:07:53;7.40;99.90
28069;DHT22;15382;47.578;8.086;2024-03-07T14:38:29;7.20;99.90
28069;DHT22;15382;47.578;8.086;2024-03-07T14:48:30;7.40;99.90
28069;DHT22;15382;47.578;8.086;2024-03-07T14:58:33;7.10;99.90
28069;DHT22;15382;47.578;8.086;2024-03-07T15:08:34;7.20;99.90
28069;DHT22;15382;47.578;8.086;2024-03-07T15:18:35;7.30;99.90
28069;DHT22;15382;47.578;8.086;2024-03-07T15:28:35;7.30;99.90
28069;DHT22;15382;47.578;8.086;2024-03-07T15:38:36;7.10;99.90
28069;DHT22;15382;47.578;8.086;2024-03-07T15:48:40;7.00;99.90
28069;DHT22;15382;47.578;8.086;2024-03-07T15:58:40;6.90;99.90
28069;DHT22;15382;47.578;8.086;2024-03-07T16:08:41;6.90;99.90
28069;DHT22;15382;47.578;8.086;2024-03-07T16:18:43;6.80;99.90
28069;DHT22;15382;47.578;8.086;2024-03-07T16:28:43;6.80;99.90
28069;DHT22;15382;47.578;8.086;2024-03-07T16:38:44;6.60;99.90
28069;DHT22;15382;47.578;8.086;2024-03-07T16:48:45;6.60;99.90
28069;DHT22;15382;47.578;8.086;2024-03-07T16:58:45;6.40;99.90
28069;DHT22;15382;47.578;8.086;2024-03-07T17:08:47;6.40;99.90
28069;DHT22;15382;47.578;8.086;2024-03-07T17:18:48;6.30;99.90
28069;DHT22;15382;47.578;8.086;2024-03-07T17:28:49;6.20;99.90
28069;DHT22;15382;47.578;8.086;2024-03-07T17:38:49;6.10;99.90
28069;DHT22;15382;47.578;8.086;2024-03-07T17:48:50;6.00;99.90
28069;DHT22;15382;47.578;8.086;2024-03-07T17:58:51;5.90;99.90
28069;DHT22;15382;47.578;8.086;2024-03-07T18:08:54;5.90;99.90
28069;DHT22;15382;47.578;8.086;2024-03-07T18:18:55;5.90;99.90
28069;DHT22;15382;47.578;8.086;2024-03-07T18:28:56;5.90;99.90
28069;DHT22;15382;47.578;8.086;2024-03-07T18:38:58;5.80;99.90
28069;DHT22;15382;47.578;8.086;2024-03-07T18:48:58;5.70;99.90
28069;DHT22;15382;47.578;8.086;2024-03-07T18:58:59;5.70;99.90
28069;DHT22;15382;47.578;8.086;2024-03-07T19:09:04;5.60;99.90
28069;DHT22;15382;47.578;8.086;2024-03-07T19:19:12;5.50;99.90
28069;DHT22;15382;47.578;8.086;2024-03-07T19:29:13;5.30;99.90
28069;DHT22;15382;47.578;8.086;2024-03-07T19:39:17;5.20;99.90
28069;DHT22;15382;47.578;8.086;2024-03-07T19:49:20;5.10;99.90
28069;DHT22;15382;47.578;8.086;2024-03-07T19:59:21;4.90;99.90
28069;DHT22;15382;47.578;8.086;2024-03-07T20:09:22;4.70;99.90
28069;DHT22;15382;47.578;8.086;2024-03-07T20:19:23;4.60;99.90
28069;DHT22;15382;47.578;8.086;2024-03-07T20:29:23;4.50;99.90
28069;DHT22;15382;47.578;8.086;2024-03-07T20:39:24;4.20;99.90
28069;DHT22;15382;47.578;8.086;2024-03-07T20:49:26;4.20;99.90
28069;DHT22;15382;47.578;8.086;2024-03-07T20:59:27;4.00;99.90
28069;DHT22;15382;47.578;8.086;2024-03-07T21:09:27;3.70;99.90
28069;DHT22;15382;47.578;8.086;2024-03-07T21:19:30;3.40;99.90
28069;DHT22;15382;47.578;8.086;2024-03-07T21:29:30;3.30;99.90
28069;DHT22;15382;47.578;8.086;2024-03-07T21:39:31;3.00;99.90
28069;DHT22;15382;47.578;8.086;2024-03-07T21:49:32;2.90;99.90
28069;DHT22;15382;47.578;8.086;2024-03-07T21:59:38;2.80;99.90
28069;DHT22;15382;47.578;8.086;2024-03-07T22:09:39;2.60;99.90
28069;DHT22;15382;47.578;8.086;2024-03-07T22:19:39;2.60;99.90
28069;DHT22;15382;47.578;8.086;2024-03-07T22:29:40;2.50;99.90
28069;DHT22;15382;47.578;8.086;2024-03-07T22:39:43;2.40;99.90
28069;DHT22;15382;47.578;8.086;2024-03-07T22:49:44;2.30;99.90
28069;DHT22;15382;47.578;8.086;2024-03-07T22:59:45;2.40;99.90
28069;DHT22;15382;47.578;8.086;2024-03-07T23:09:45;2.50;99.90
28069;DHT22;15382;47.578;8.086;2024-03-07T23:19:49;2.50;99.90
28069;DHT22;15382;47.578;8.086;2024-03-07T23:29:50;2.50;99.90
28069;DHT22;15382;47.578;8.086;2024-03-07T23:39:51;2.40;99.90
28069;DHT22;15382;47.578;8.086;2024-03-07T23:49:52;2.70;99.90
28069;DHT22;15382;47.578;8.086;2024-03-07T23:59:53;2.80;99.90
